createdAt,value
2022-09-03T00:00:39.945Z,10.47
2022-09-03T00:03:29.526Z,10.39
2022-09-03T00:06:21.230Z,10.33
2022-09-03T00:09:00.208Z,10.34
2022-09-03T00:11:48.148Z,10.37
2022-09-03T00:14:26.053Z,10.38
2022-09-03T00:17:01.447Z,10.29
2022-09-03T00:19:32.809Z,10.30
2022-09-03T00:22:10.580Z,10.32
2022-09-03T00:24:39.563Z,10.33
2022-09-03T00:27:12.083Z,10.34
2022-09-03T00:30:09.624Z,10.33
2022-09-03T00:32:48.642Z,10.28
2022-09-03T00:35:32.058Z,10.15
2022-09-03T00:38:00.284Z,10.12
2022-09-03T00:40:42.880Z,10.09
2022-09-03T00:43:32.426Z,10.08
2022-09-03T00:46:24.846Z,10.05
2022-09-03T00:49:24.062Z,9.94
2022-09-03T00:52:09.744Z,9.87
2022-09-03T00:54:49.893Z,9.83
2022-09-03T00:57:39.136Z,9.79
2022-09-03T01:00:19.577Z,9.78
2022-09-03T01:03:09.773Z,9.78
2022-09-03T01:06:01.709Z,9.71
2022-09-03T01:08:32.426Z,9.67
2022-09-03T01:11:02.985Z,9.68
2022-09-03T01:13:50.680Z,9.64
2022-09-03T01:16:52.204Z,9.64
2022-09-03T01:19:27.818Z,9.52
2022-09-03T01:22:20.608Z,9.47
2022-09-03T01:25:10.935Z,9.43
2022-09-03T01:28:02.105Z,9.47
2022-09-03T01:30:31.494Z,9.44
2022-09-03T01:33:04.598Z,9.38
2022-09-03T01:36:06.869Z,9.35
2022-09-03T01:38:45.797Z,9.39
2022-09-03T01:41:52.915Z,9.41
2022-09-03T01:44:45.029Z,9.47
2022-09-03T01:47:33.384Z,9.50
2022-09-03T01:50:34.286Z,9.48
2022-09-03T01:53:25.751Z,9.48
2022-09-03T01:55:56.799Z,9.48
2022-09-03T01:58:33.963Z,9.46
2022-09-03T02:01:09.825Z,9.48
2022-09-03T02:03:41.248Z,9.49
2022-09-03T02:06:09.477Z,9.50
2022-09-03T02:08:37.396Z,9.52
2022-09-03T02:11:07.200Z,9.55
2022-09-03T02:13:38.381Z,9.60
2022-09-03T02:16:13.362Z,9.53
2022-09-03T02:18:44.426Z,9.54
2022-09-03T02:21:13.414Z,9.49
2022-09-03T02:23:41.619Z,9.48
2022-09-03T02:26:09.802Z,9.56
2022-09-03T02:28:38.133Z,9.67
2022-09-03T02:31:05.991Z,9.74
2022-09-03T02:33:42.860Z,9.77
2022-09-03T02:36:13.168Z,9.76
2022-09-03T02:38:44.318Z,9.83
2022-09-03T02:41:15.293Z,9.87
2022-09-03T02:44:03.870Z,9.88
2022-09-03T02:46:41.775Z,9.93
2022-09-03T02:49:09.591Z,9.93
2022-09-03T02:51:41.965Z,9.98
2022-09-03T02:54:10.894Z,10.01
2022-09-03T02:56:38.703Z,10.05
2022-09-03T02:59:07.394Z,10.10
2022-09-03T03:01:35.315Z,10.10
2022-09-03T03:04:03.332Z,10.13
2022-09-03T03:06:30.972Z,10.16
2022-09-03T03:08:59.238Z,10.22
2022-09-03T03:11:27.861Z,10.27
2022-09-03T03:13:58.292Z,10.31
2022-09-03T03:16:25.876Z,10.46
2022-09-03T03:18:53.609Z,10.56
2022-09-03T03:21:21.209Z,10.65
2022-09-03T03:23:48.900Z,10.76
2022-09-03T03:26:18.719Z,10.89
2022-09-03T03:28:49.504Z,11.03
2022-09-03T03:31:21.354Z,11.12
2022-09-03T03:33:53.347Z,11.21
2022-09-03T03:36:21.477Z,11.35
2022-09-03T03:38:49.797Z,11.58
2022-09-03T03:41:22.041Z,11.70
2022-09-03T03:43:53.452Z,11.81
2022-09-03T03:46:22.560Z,12.24
2022-09-03T03:48:53.220Z,12.79
2022-09-03T03:51:21.094Z,13.32
2022-09-03T03:53:48.972Z,13.62
2022-09-03T03:56:17.073Z,14.07
2022-09-03T03:58:44.974Z,14.67
2022-09-03T04:01:20.532Z,15.38
2022-09-03T04:03:48.528Z,15.88
2022-09-03T04:06:18.636Z,15.94
2022-09-03T04:08:47.705Z,15.64
2022-09-03T04:11:19.468Z,15.23
2022-09-03T04:13:47.852Z,15.05
2022-09-03T04:16:26.367Z,15.05
2022-09-03T04:18:54.704Z,15.87
2022-09-03T04:21:23.562Z,16.79
2022-09-03T04:23:51.708Z,17.54
2022-09-03T04:26:23.974Z,17.17
2022-09-03T04:28:51.604Z,17.30
2022-09-03T04:31:20.475Z,17.67
2022-09-03T04:33:48.062Z,18.05
2022-09-03T04:36:20.623Z,18.01
2022-09-03T04:38:50.090Z,18.21
2022-09-03T04:41:19.228Z,17.94
2022-09-03T04:43:51.363Z,18.21
2022-09-03T04:46:20.401Z,18.60
2022-09-03T04:48:50.422Z,19.15
2022-09-03T04:51:23.509Z,18.96
2022-09-03T04:53:57.232Z,19.07
2022-09-03T04:56:29.935Z,18.85
2022-09-03T04:58:58.908Z,17.99
2022-09-03T05:01:27.972Z,17.71
2022-09-03T05:03:56.727Z,17.78
2022-09-03T05:06:25.890Z,17.45
2022-09-03T05:08:54.506Z,17.15
2022-09-03T05:11:22.813Z,17.01
2022-09-03T05:13:51.669Z,17.32
2022-09-03T05:16:19.636Z,17.48
2022-09-03T05:18:47.981Z,17.37
2022-09-03T05:21:17.181Z,17.31
2022-09-03T05:23:46.209Z,17.25
2022-09-03T05:26:15.512Z,17.21
2022-09-03T05:28:43.463Z,17.35
2022-09-03T05:31:12.632Z,17.32
2022-09-03T05:33:45.126Z,17.04
2022-09-03T05:36:14.178Z,17.21
2022-09-03T05:38:41.819Z,17.37
2022-09-03T05:41:10.558Z,17.49
2022-09-03T05:43:38.885Z,17.63
2022-09-03T05:46:08.121Z,17.73
2022-09-03T05:48:36.822Z,17.81
2022-09-03T05:51:06.386Z,18.05
2022-09-03T05:53:36.606Z,18.19
2022-09-03T05:56:11.024Z,18.20
2022-09-03T05:58:45.476Z,18.31
2022-09-03T06:01:17.111Z,18.51
2022-09-03T06:03:45.524Z,18.70
2022-09-03T06:06:14.148Z,18.77
2022-09-03T06:08:42.373Z,18.80
2022-09-03T06:11:09.942Z,18.78
2022-09-03T06:13:38.424Z,18.92
2022-09-03T06:16:07.119Z,18.90
2022-09-03T06:18:35.107Z,18.90
2022-09-03T06:21:04.780Z,19.14
2022-09-03T06:23:33.657Z,19.29
2022-09-03T06:26:11.900Z,19.36
2022-09-03T06:28:44.354Z,19.49
2022-09-03T06:31:14.772Z,19.55
2022-09-03T06:33:43.119Z,19.48
2022-09-03T06:36:13.248Z,19.46
2022-09-03T06:38:41.104Z,19.50
2022-09-03T06:41:24.007Z,19.47
2022-09-03T06:43:53.392Z,19.41
2022-09-03T06:46:22.229Z,19.43
2022-09-03T06:48:51.906Z,19.47
2022-09-03T06:51:24.002Z,19.61
2022-09-03T06:53:52.913Z,19.77
2022-09-03T06:56:27.364Z,19.81
2022-09-03T06:58:58.937Z,19.82
2022-09-03T07:01:27.480Z,19.71
2022-09-03T07:03:56.647Z,19.92
2022-09-03T07:06:25.731Z,20.04
2022-09-03T07:08:54.752Z,19.84
2022-09-03T07:11:26.280Z,19.92
2022-09-03T07:13:56.531Z,19.90
2022-09-03T07:16:26.290Z,19.95
2022-09-03T07:18:54.509Z,20.05
2022-09-03T07:21:27.124Z,20.42
2022-09-03T07:23:57.784Z,20.76
2022-09-03T07:26:28.060Z,20.89
2022-09-03T07:28:56.186Z,20.97
2022-09-03T07:31:38.064Z,21.07
2022-09-03T07:34:09.985Z,21.11
2022-09-03T07:36:40.247Z,21.30
2022-09-03T07:39:09.396Z,21.45
2022-09-03T07:41:38.005Z,21.34
2022-09-03T07:44:08.462Z,21.46
2022-09-03T07:46:38.255Z,21.65
2022-09-03T07:49:09.791Z,21.93
2022-09-03T07:51:38.667Z,21.91
2022-09-03T07:54:09.966Z,22.11
2022-09-03T07:56:39.804Z,22.09
2022-09-03T07:59:08.462Z,21.83
2022-09-03T08:01:38.261Z,21.75
2022-09-03T08:04:09.779Z,21.76
2022-09-03T08:06:38.116Z,21.82
2022-09-03T08:09:07.245Z,21.85
2022-09-03T08:11:37.710Z,21.90
2022-09-03T08:14:07.190Z,22.14
2022-09-03T08:16:42.103Z,22.26
2022-09-03T08:19:11.548Z,22.01
2022-09-03T08:21:42.275Z,21.99
2022-09-03T08:24:15.028Z,21.83
2022-09-03T08:26:46.341Z,21.97
2022-09-03T08:29:18.423Z,21.93
2022-09-03T08:31:47.155Z,21.99
2022-09-03T08:34:17.145Z,21.84
2022-09-03T08:36:47.107Z,21.86
2022-09-03T08:39:15.356Z,21.81
2022-09-03T08:42:01.661Z,22.10
2022-09-03T08:44:38.631Z,22.01
2022-09-03T08:47:36.069Z,21.91
2022-09-03T08:50:13.451Z,21.97
2022-09-03T08:53:02.448Z,22.43
2022-09-03T08:55:36.876Z,22.53
2022-09-03T08:58:14.333Z,22.63
2022-09-03T09:01:01.894Z,22.82
2022-09-03T09:03:43.691Z,23.16
2022-09-03T09:06:27.969Z,23.00
2022-09-03T09:09:20.931Z,23.16
2022-09-03T09:12:14.390Z,23.06
2022-09-03T09:14:46.931Z,23.07
2022-09-03T09:17:44.408Z,23.26
2022-09-03T09:20:16.291Z,23.67
2022-09-03T09:22:47.630Z,23.47
2022-09-03T09:25:21.443Z,23.76
2022-09-03T09:28:02.476Z,23.98
2022-09-03T09:30:31.083Z,24.15
2022-09-03T09:33:00.755Z,23.80
2022-09-03T09:35:28.577Z,23.73
2022-09-03T09:37:57.808Z,23.71
2022-09-03T09:40:33.325Z,23.77
2022-09-03T09:43:11.089Z,23.64
2022-09-03T09:45:46.718Z,23.42
2022-09-03T09:48:31.704Z,23.46
2022-09-03T09:51:06.269Z,23.32
2022-09-03T09:53:35.210Z,23.32
2022-09-03T09:56:03.214Z,23.29
2022-09-03T09:58:31.287Z,23.33
2022-09-03T10:01:13.604Z,23.34
2022-09-03T10:03:57.216Z,23.48
2022-09-03T10:06:44.226Z,23.95
2022-09-03T10:09:26.724Z,23.76
2022-09-03T10:12:05.292Z,23.60
2022-09-03T10:14:38.928Z,23.88
2022-09-03T10:17:26.571Z,23.74
2022-09-03T10:20:33.774Z,23.76
2022-09-03T10:23:08.302Z,23.97
2022-09-03T10:26:32.332Z,23.76
2022-09-03T10:29:01.645Z,23.60
2022-09-03T10:31:36.955Z,23.80
2022-09-03T10:34:14.108Z,23.79
2022-09-03T10:37:22.753Z,23.56
2022-09-03T10:40:31.803Z,23.38
2022-09-03T10:43:21.594Z,23.69
2022-09-03T10:46:03.385Z,23.85
2022-09-03T10:48:49.170Z,23.92
2022-09-03T10:51:49.480Z,23.82
2022-09-03T10:54:47.888Z,24.07
2022-09-03T10:57:19.309Z,24.28
2022-09-03T10:59:58.631Z,24.19
2022-09-03T11:02:32.559Z,24.45
2022-09-03T11:05:08.151Z,24.41
2022-09-03T11:07:39.410Z,24.41
2022-09-03T11:10:31.429Z,24.20
2022-09-03T11:13:08.762Z,23.90
2022-09-03T11:15:39.495Z,23.96
2022-09-03T11:18:07.521Z,23.92
2022-09-03T11:20:35.207Z,23.77
2022-09-03T11:23:05.125Z,23.84
2022-09-03T11:25:36.017Z,23.80
2022-09-03T11:28:21.338Z,24.02
2022-09-03T11:31:16.043Z,23.87
2022-09-03T11:33:50.304Z,24.21
2022-09-03T11:36:33.701Z,24.29
2022-09-03T11:39:01.460Z,24.26
2022-09-03T11:41:35.931Z,24.31
2022-09-03T11:44:19.163Z,24.30
2022-09-03T11:46:56.868Z,24.24
2022-09-03T11:49:31.797Z,24.29
2022-09-03T11:52:04.774Z,24.16
2022-09-03T11:54:33.070Z,24.09
2022-09-03T11:57:10.609Z,24.20
2022-09-03T11:59:38.211Z,24.40
2022-09-03T12:02:16.564Z,24.63
2022-09-03T12:04:50.306Z,24.33
2022-09-03T12:07:21.201Z,24.31
2022-09-03T12:09:51.784Z,24.37
2022-09-03T12:12:47.417Z,24.24
2022-09-03T12:15:34.040Z,23.93
2022-09-03T12:18:19.963Z,24.05
2022-09-03T12:21:09.956Z,23.97
2022-09-03T12:23:45.693Z,24.16
2022-09-03T12:26:17.543Z,24.26
2022-09-03T12:28:52.722Z,24.21
2022-09-03T12:31:23.962Z,24.27
2022-09-03T12:33:52.860Z,24.12
2022-09-03T12:36:24.023Z,24.16
2022-09-03T12:39:10.819Z,23.93
2022-09-03T12:41:39.616Z,23.95
2022-09-03T12:44:07.502Z,24.00
2022-09-03T12:46:35.295Z,23.82
2022-09-03T12:52:06.270Z,23.78
2022-09-03T12:54:36.127Z,23.75
2022-09-03T12:57:03.959Z,23.59
2022-09-03T12:59:33.530Z,23.58
2022-09-03T13:02:09.411Z,23.61
2022-09-03T13:04:37.149Z,23.44
2022-09-03T13:07:22.999Z,23.42
2022-09-03T13:09:50.680Z,23.50
2022-09-03T13:12:24.658Z,23.51
2022-09-03T13:14:53.791Z,23.52
2022-09-03T13:17:38.864Z,23.65
2022-09-03T13:20:26.985Z,23.59
2022-09-03T13:23:00.760Z,23.46
2022-09-03T13:25:46.492Z,23.47
2022-09-03T13:28:27.607Z,23.39
2022-09-03T13:31:25.946Z,23.49
2022-09-03T13:34:02.069Z,23.52
2022-09-03T13:36:51.779Z,23.63
2022-09-03T13:39:24.673Z,23.57
2022-09-03T13:42:13.069Z,23.61
2022-09-03T13:45:06.877Z,23.41
2022-09-03T13:48:01.316Z,23.38
2022-09-03T13:50:29.586Z,23.39
2022-09-03T13:52:59.400Z,23.41
2022-09-03T13:55:42.159Z,23.26
2022-09-03T13:58:42.591Z,23.18
2022-09-03T14:01:23.926Z,23.07
2022-09-03T14:03:58.615Z,23.12
2022-09-03T14:06:41.507Z,22.99
2022-09-03T14:09:34.308Z,22.94
2022-09-03T14:12:26.780Z,22.91
2022-09-03T14:14:57.494Z,22.86
2022-09-03T14:17:51.318Z,22.84
2022-09-03T14:20:33.628Z,22.86
2022-09-03T14:23:22.397Z,22.77
2022-09-03T14:25:54.794Z,22.67
2022-09-03T14:28:40.825Z,22.63
2022-09-03T14:31:23.599Z,22.60
2022-09-03T14:34:14.728Z,22.47
2022-09-03T14:36:51.333Z,22.42
2022-09-03T14:39:29.142Z,22.41
2022-09-03T14:42:19.685Z,22.27
2022-09-03T14:44:52.164Z,22.24
2022-09-03T14:47:23.967Z,22.21
2022-09-03T14:50:03.805Z,22.16
2022-09-03T14:52:53.469Z,22.17
2022-09-03T14:55:29.817Z,22.14
2022-09-03T14:58:06.613Z,22.01
2022-09-03T15:00:48.204Z,22.01
2022-09-03T15:03:18.686Z,21.82
2022-09-03T15:06:03.786Z,21.75
2022-09-03T15:08:44.031Z,21.75
2022-09-03T15:11:19.835Z,21.66
2022-09-03T15:13:54.148Z,21.65
2022-09-03T15:16:52.244Z,21.56
2022-09-03T15:19:28.986Z,21.53
2022-09-03T15:22:14.999Z,21.45
2022-09-03T15:25:05.670Z,21.43
2022-09-03T15:27:56.104Z,21.33
2022-09-03T15:30:23.836Z,21.32
2022-09-03T15:33:18.895Z,21.25
2022-09-03T15:36:01.434Z,21.17
2022-09-03T15:38:32.310Z,21.13
2022-09-03T15:41:08.559Z,21.12
2022-09-03T15:43:36.333Z,21.09
2022-09-03T15:46:13.943Z,21.06
2022-09-03T15:48:59.800Z,21.04
2022-09-03T15:51:33.400Z,20.92
2022-09-03T15:54:27.319Z,20.92
2022-09-03T15:57:05.473Z,20.96
2022-09-03T15:59:47.911Z,20.88
2022-09-03T16:02:18.496Z,20.86
2022-09-03T16:05:09.091Z,20.81
2022-09-03T16:07:37.235Z,20.79
2022-09-03T16:10:30.780Z,20.79
2022-09-03T16:13:22.834Z,20.75
2022-09-03T16:16:04.230Z,20.71
2022-09-03T16:18:49.974Z,20.75
2022-09-03T16:21:23.357Z,20.67
2022-09-03T16:23:59.941Z,20.67
2022-09-03T16:26:41.421Z,20.60
2022-09-03T16:29:09.761Z,20.53
2022-09-03T16:32:27.170Z,20.52
2022-09-03T16:35:23.659Z,20.50
2022-09-03T16:38:25.358Z,20.46
2022-09-03T16:40:52.996Z,20.32
2022-09-03T16:43:40.114Z,20.36
2022-09-03T16:46:30.973Z,20.31
2022-09-03T16:49:19.181Z,20.29
2022-09-03T16:52:07.863Z,20.27
2022-09-03T16:54:44.764Z,20.24
2022-09-03T16:57:35.685Z,20.17
2022-09-03T17:00:12.241Z,20.19
2022-09-03T17:02:51.846Z,20.16
2022-09-03T17:05:22.343Z,20.14
2022-09-03T17:08:07.085Z,20.17
2022-09-03T17:10:40.352Z,20.14
2022-09-03T17:13:45.209Z,20.09
2022-09-03T17:16:24.369Z,20.03
2022-09-03T17:19:02.297Z,20.02
2022-09-03T17:21:51.371Z,20.03
2022-09-03T17:24:33.593Z,20.03
2022-09-03T17:27:21.264Z,20.00
2022-09-03T17:30:01.277Z,19.96
2022-09-03T17:33:03.322Z,19.94
2022-09-03T17:36:31.515Z,19.93
2022-09-03T17:39:36.758Z,19.87
2022-09-03T17:42:06.581Z,19.82
2022-09-03T17:44:42.865Z,19.81
2022-09-03T17:47:36.540Z,19.80
2022-09-03T17:50:27.553Z,19.69
2022-09-03T17:53:01.228Z,19.61
2022-09-03T17:55:40.287Z,19.54
2022-09-03T17:58:16.921Z,19.49
2022-09-03T18:00:46.279Z,19.44
2022-09-03T18:03:24.572Z,19.42
2022-09-03T18:06:01.323Z,19.41
2022-09-03T18:08:46.764Z,19.40
2022-09-03T18:11:30.783Z,19.37
2022-09-03T18:14:16.716Z,19.37
2022-09-03T18:17:09.856Z,19.30
2022-09-03T18:20:08.885Z,19.29
2022-09-03T18:23:18.678Z,19.35
2022-09-03T18:26:07.140Z,19.36
2022-09-03T18:29:31.586Z,19.36
2022-09-03T18:32:18.957Z,19.27
2022-09-03T18:35:05.729Z,19.22
2022-09-03T18:37:52.207Z,19.22
2022-09-03T18:40:49.911Z,19.18
2022-09-03T18:44:08.237Z,19.15
2022-09-03T18:48:01.848Z,19.10
2022-09-03T18:50:32.076Z,19.03
2022-09-03T18:53:47.166Z,18.76
2022-09-03T18:56:58.177Z,18.45
2022-09-03T19:00:09.932Z,18.09
2022-09-03T19:03:05.471Z,17.77
2022-09-03T19:05:58.977Z,17.64
2022-09-03T19:08:55.783Z,17.54
2022-09-03T19:11:51.178Z,17.37
2022-09-03T19:15:19.160Z,17.26
2022-09-03T19:18:18.529Z,17.24
2022-09-03T19:21:25.943Z,17.22
2022-09-03T19:24:12.376Z,17.18
2022-09-03T19:27:51.729Z,17.13
2022-09-03T19:30:59.195Z,16.98
2022-09-03T19:34:08.432Z,16.74
2022-09-03T19:37:09.844Z,16.43
2022-09-03T19:40:25.537Z,16.27
2022-09-03T19:43:17.753Z,16.05
2022-09-03T19:46:21.728Z,15.80
2022-09-03T19:49:41.709Z,15.68
2022-09-03T19:52:36.901Z,15.42
2022-09-03T19:55:23.599Z,15.28
2022-09-03T19:58:26.180Z,15.19
2022-09-03T20:01:19.487Z,15.03
2022-09-03T20:04:05.984Z,14.94
2022-09-03T20:06:52.533Z,14.84
2022-09-03T20:09:40.072Z,14.65
2022-09-03T20:12:10.038Z,14.59
2022-09-03T20:14:39.152Z,14.47
2022-09-03T20:17:21.277Z,14.43
2022-09-03T20:20:04.760Z,14.37
2022-09-03T20:22:59.861Z,14.23
2022-09-03T20:26:06.121Z,14.11
2022-09-03T20:28:56.804Z,14.04
2022-09-03T20:32:01.242Z,13.93
2022-09-03T20:34:32.897Z,13.83
2022-09-03T20:37:19.285Z,13.76
2022-09-03T20:39:58.660Z,13.70
2022-09-03T20:42:31.984Z,13.64
2022-09-03T20:45:06.774Z,13.55
2022-09-03T20:48:00.437Z,13.38
2022-09-03T20:50:43.907Z,13.29
2022-09-03T20:53:49.091Z,13.16
2022-09-03T20:56:41.493Z,13.10
2022-09-03T20:59:28.117Z,13.06
2022-09-03T21:02:32.184Z,13.03
2022-09-03T21:05:15.168Z,12.95
2022-09-03T21:08:20.069Z,12.95
2022-09-03T21:10:58.272Z,12.85
2022-09-03T21:13:25.832Z,12.79
2022-09-03T21:16:14.298Z,12.79
2022-09-03T21:18:50.248Z,12.79
2022-09-03T21:21:45.863Z,12.79
2022-09-03T21:24:20.229Z,12.77
2022-09-03T21:26:52.176Z,12.80
2022-09-03T21:29:24.360Z,12.75
2022-09-03T21:32:18.688Z,12.70
2022-09-03T21:34:58.639Z,12.67
2022-09-03T21:37:26.237Z,12.68
2022-09-03T21:39:57.015Z,12.63
2022-09-03T21:42:34.491Z,12.65
2022-09-03T21:45:07.773Z,12.63
2022-09-03T21:47:39.596Z,12.67
2022-09-03T21:50:17.478Z,12.64
2022-09-03T21:53:07.455Z,12.62
2022-09-03T21:55:58.140Z,12.63
2022-09-03T21:58:30.789Z,12.61
2022-09-03T22:01:06.438Z,12.62
2022-09-03T22:03:34.844Z,12.59
2022-09-03T22:06:25.971Z,12.67
2022-09-03T22:09:27.649Z,12.63
2022-09-03T22:11:59.769Z,12.61
2022-09-03T22:14:28.257Z,12.60
2022-09-03T22:17:36.894Z,12.60
2022-09-03T22:20:05.362Z,12.62
2022-09-03T22:22:41.013Z,12.60
2022-09-03T22:25:29.930Z,12.51
2022-09-03T22:28:22.564Z,12.42
2022-09-03T22:31:06.693Z,12.44
2022-09-03T22:33:55.981Z,12.38
2022-09-03T22:36:28.643Z,12.33
2022-09-03T22:39:08.235Z,12.33
2022-09-03T22:41:47.978Z,12.33
2022-09-03T22:44:23.080Z,12.35
2022-09-03T22:47:00.651Z,12.35
2022-09-03T22:49:44.712Z,12.30
2022-09-03T22:52:30.406Z,12.22
2022-09-03T22:55:02.972Z,12.25
2022-09-03T22:57:30.652Z,12.22
2022-09-03T23:00:06.923Z,12.18
2022-09-03T23:02:34.781Z,12.16
2022-09-03T23:05:22.572Z,12.20
2022-09-03T23:08:22.037Z,12.13
2022-09-03T23:11:08.332Z,12.03
2022-09-03T23:13:42.161Z,12.01
2022-09-03T23:16:24.490Z,12.08
2022-09-03T23:18:52.483Z,12.04
2022-09-03T23:21:23.842Z,12.01
2022-09-03T23:24:00.032Z,11.97
2022-09-03T23:26:37.871Z,11.98
2022-09-03T23:29:11.514Z,11.98
2022-09-03T23:31:39.753Z,11.97
2022-09-03T23:34:09.248Z,11.94
2022-09-03T23:37:32.540Z,11.87
2022-09-03T23:40:03.996Z,11.83
2022-09-03T23:43:08.306Z,11.87
2022-09-03T23:45:36.370Z,11.83
2022-09-03T23:48:06.555Z,11.84
2022-09-03T23:51:02.089Z,11.84
2022-09-03T23:53:32.135Z,11.83
2022-09-03T23:56:26.016Z,11.84
2022-09-03T23:59:15.466Z,11.77
